Time;durP1;ratioP1;P1;durP2;ratioP2;P2;SDS_P1;SDS_P2;PMS_P1;PMS_P2;Temp;Humidity;BMP_temperature;BMP_pressure;BME280_temperature;BME280_humidity;BME280_pressure;Samples;Min_cycle;Max_cycle;Signal;HPM_P1;HPM_P2
2021/07/08 00:01:34;;;;;;;;;4.00;4.00;;;;;;;;4990029;28;8950;-81
2021/07/08 00:04:01;;;;;;;;;5.00;4.25;;;;;;;;5010110;28;8860;-83
2021/07/08 00:06:31;;;;;;;;;3.75;3.75;;;;;;;;5005219;28;8880;-82
2021/07/08 00:08:58;;;;;;;;;2.75;2.75;;;;;;;;5005517;28;8879;-82
2021/07/08 00:11:26;;;;;;;;;3.75;3.75;;;;;;;;5000573;28;8869;-81
2021/07/08 00:13:53;;;;;;;;;3.25;3.25;;;;;;;;5008140;28;8920;-82
2021/07/08 00:16:21;;;;;;;;;4.50;3.25;;;;;;;;5004107;28;9009;-82
2021/07/08 00:18:48;;;;;;;;;5.50;2.25;;;;;;;;5009459;28;8871;-82
2021/07/08 00:21:16;;;;;;;;;5.25;4.00;;;;;;;;5006937;28;9702;-82
2021/07/08 00:23:45;;;;;;;;;4.00;4.00;;;;;;;;5005081;28;8931;-82
2021/07/08 00:26:12;;;;;;;;;5.25;5.00;;;;;;;;5005060;28;8874;-82
2021/07/08 00:28:39;;;;;;;;;4.50;4.50;;;;;;;;4984468;28;8902;-82
2021/07/08 00:31:07;;;;;;;;;5.25;5.25;;;;;;;;5004152;28;8826;-83
2021/07/08 00:33:34;;;;;;;;;7.00;5.75;;;;;;;;5009102;28;8860;-82
2021/07/08 00:36:01;;;;;;;;;5.50;4.00;;;;;;;;5006790;28;8914;-82
2021/07/08 00:38:29;;;;;;;;;9.00;7.50;;;;;;;;4994230;28;9042;-82
2021/07/08 00:40:57;;;;;;;;;5.50;5.50;;;;;;;;5002901;28;8887;-82
2021/07/08 00:43:27;;;;;;;;;6.00;6.00;;;;;;;;5017002;28;8853;-81
2021/07/08 00:45:55;;;;;;;;;4.75;4.75;;;;;;;;5005801;28;8945;-82
2021/07/08 00:48:22;;;;;;;;;3.25;3.25;;;;;;;;5005784;28;9067;-81
2021/07/08 00:50:49;;;;;;;;;3.75;3.75;;;;;;;;5005040;28;8887;-83
2021/07/08 00:53:18;;;;;;;;;5.25;4.00;;;;;;;;5023919;28;8999;-83
2021/07/08 00:55:47;;;;;;;;;4.75;4.75;;;;;;;;5005424;28;8928;-83
2021/07/08 00:58:18;;;;;;;;;4.75;4.75;;;;;;;;5015039;28;8893;-82
2021/07/08 01:00:45;;;;;;;;;5.00;5.00;;;;;;;;5006845;28;8787;-82
2021/07/08 01:03:14;;;;;;;;;6.25;6.25;;;;;;;;5002535;28;8881;-82
2021/07/08 01:05:45;;;;;;;;;4.00;4.00;;;;;;;;5006874;28;8876;-82
2021/07/08 01:08:13;;;;;;;;;5.25;5.25;;;;;;;;5006146;28;8987;-83
2021/07/08 01:10:41;;;;;;;;;4.25;4.25;;;;;;;;5023382;28;8886;-82
2021/07/08 01:13:09;;;;;;;;;5.00;5.00;;;;;;;;5020617;28;8872;-80
2021/07/08 01:15:38;;;;;;;;;4.75;4.00;;;;;;;;5005699;28;8918;-82
2021/07/08 01:18:06;;;;;;;;;5.25;5.25;;;;;;;;5006692;28;8885;-79
2021/07/08 01:20:34;;;;;;;;;5.00;5.00;;;;;;;;5004417;28;8894;-81
2021/07/08 01:23:03;;;;;;;;;5.75;4.50;;;;;;;;5009816;28;8887;-81
2021/07/08 01:25:32;;;;;;;;;5.00;5.00;;;;;;;;5014983;28;8861;-80
2021/07/08 01:28:01;;;;;;;;;3.00;3.00;;;;;;;;5013978;28;8874;-82
2021/07/08 01:30:29;;;;;;;;;4.25;4.25;;;;;;;;5007703;28;8811;-85
2021/07/08 01:32:57;;;;;;;;;5.00;4.00;;;;;;;;5006053;28;8942;-84
2021/07/08 01:35:25;;;;;;;;;3.00;3.00;;;;;;;;5005489;28;8847;-83
2021/07/08 01:37:53;;;;;;;;;3.00;3.00;;;;;;;;5010066;28;8915;-84
2021/07/08 01:40:22;;;;;;;;;4.00;4.00;;;;;;;;5009994;28;8863;-85
2021/07/08 01:42:50;;;;;;;;;4.50;4.50;;;;;;;;5011955;28;8893;-82
2021/07/08 01:45:18;;;;;;;;;5.75;4.00;;;;;;;;5007668;28;9012;-82
2021/07/08 01:47:46;;;;;;;;;4.00;4.00;;;;;;;;5005696;28;8876;-84
2021/07/08 01:50:15;;;;;;;;;3.00;3.00;;;;;;;;5006176;28;8881;-82
2021/07/08 01:52:44;;;;;;;;;4.00;3.75;;;;;;;;5010894;28;8965;-83
2021/07/08 01:55:12;;;;;;;;;4.25;4.25;;;;;;;;5005550;28;8894;-83
2021/07/08 01:57:43;;;;;;;;;4.25;3.00;;;;;;;;4989145;28;8962;-82
2021/07/08 02:00:12;;;;;;;;;4.25;4.25;;;;;;;;4986901;28;8898;-81
2021/07/08 02:02:40;;;;;;;;;5.75;5.75;;;;;;;;5008286;28;8943;-83
2021/07/08 02:05:09;;;;;;;;;5.00;5.00;;;;;;;;5005582;28;9003;-82
2021/07/08 02:07:36;;;;;;;;;5.00;5.00;;;;;;;;5007057;28;8929;-84
2021/07/08 02:10:05;;;;;;;;;4.25;4.25;;;;;;;;5003889;28;8901;-83
2021/07/08 02:12:33;;;;;;;;;3.50;3.50;;;;;;;;5017686;28;8989;-82
2021/07/08 02:15:01;;;;;;;;;5.00;4.75;;;;;;;;5008668;28;8874;-83
2021/07/08 02:17:29;;;;;;;;;5.50;5.50;;;;;;;;4987490;28;8880;-85
2021/07/08 02:19:56;;;;;;;;;5.25;5.25;;;;;;;;5011729;28;8917;-83
2021/07/08 02:22:23;;;;;;;;;4.75;4.75;;;;;;;;5006288;28;9015;-84
2021/07/08 02:24:50;;;;;;;;;5.75;5.75;;;;;;;;5009387;28;8911;-85
2021/07/08 02:27:18;;;;;;;;;6.00;6.00;;;;;;;;5005387;28;9014;-83
2021/07/08 02:29:45;;;;;;;;;5.00;5.00;;;;;;;;5004761;28;8866;-84
2021/07/08 02:32:14;;;;;;;;;4.00;4.00;;;;;;;;5005118;28;8861;-83
2021/07/08 02:34:42;;;;;;;;;4.75;4.75;;;;;;;;5006448;28;8887;-83
2021/07/08 02:37:09;;;;;;;;;6.75;5.25;;;;;;;;5013888;28;8880;-84
2021/07/08 02:39:37;;;;;;;;;4.00;4.00;;;;;;;;4984165;28;8879;-83
2021/07/08 02:42:05;;;;;;;;;4.00;4.00;;;;;;;;5005485;28;9727;-83
2021/07/08 02:44:32;;;;;;;;;4.50;4.50;;;;;;;;5004531;28;8863;-83
2021/07/08 02:47:01;;;;;;;;;6.25;6.25;;;;;;;;4986293;28;9435;-83
2021/07/08 02:49:30;;;;;;;;;7.75;5.75;;;;;;;;5012253;28;8898;-82
2021/07/08 02:51:57;;;;;;;;;3.25;3.25;;;;;;;;4999829;28;8885;-82
2021/07/08 02:54:24;;;;;;;;;6.50;4.25;;;;;;;;5005228;28;8879;-82
2021/07/08 02:56:52;;;;;;;;;6.00;4.33;;;;;;;;5004352;28;8871;-83
2021/07/08 02:59:19;;;;;;;;;5.50;5.00;;;;;;;;5005395;28;8974;-84
2021/07/08 03:01:46;;;;;;;;;6.00;6.00;;;;;;;;5006578;28;8831;-85
2021/07/08 03:04:14;;;;;;;;;8.00;8.00;;;;;;;;5005536;28;8974;-84
2021/07/08 03:06:42;;;;;;;;;6.00;6.00;;;;;;;;5008954;28;9837;-84
2021/07/08 03:09:09;;;;;;;;;5.50;5.50;;;;;;;;5007475;28;8945;-84
2021/07/08 03:11:37;;;;;;;;;6.00;6.00;;;;;;;;5005050;28;8871;-84
2021/07/08 03:14:04;;;;;;;;;8.00;5.33;;;;;;;;5003699;28;9135;-83
2021/07/08 03:16:32;;;;;;;;;5.25;5.25;;;;;;;;5005953;28;9027;-83
2021/07/08 03:18:59;;;;;;;;;9.33;8.00;;;;;;;;5002748;28;8884;-83
2021/07/08 03:21:26;;;;;;;;;4.75;4.75;;;;;;;;5007410;28;9498;-83
2021/07/08 03:23:55;;;;;;;;;4.25;4.25;;;;;;;;5006364;28;8847;-83
2021/07/08 03:26:22;;;;;;;;;3.00;3.00;;;;;;;;5015627;28;9051;-84
2021/07/08 03:28:49;;;;;;;;;5.00;5.00;;;;;;;;5005367;28;8855;-83
2021/07/08 03:31:18;;;;;;;;;4.33;4.33;;;;;;;;5001811;28;8839;-84
2021/07/08 03:33:46;;;;;;;;;5.25;3.75;;;;;;;;5003849;28;8998;-83
2021/07/08 03:36:13;;;;;;;;;6.00;4.00;;;;;;;;5003774;28;9682;-82
2021/07/08 03:38:40;;;;;;;;;9.25;4.25;;;;;;;;4987582;28;9107;-81
2021/07/08 03:41:09;;;;;;;;;7.33;5.00;;;;;;;;5002974;28;8874;-82
2021/07/08 03:43:36;;;;;;;;;7.33;4.67;;;;;;;;5013968;28;8967;-82
2021/07/08 03:46:04;;;;;;;;;4.00;4.00;;;;;;;;5012798;28;9250;-81
2021/07/08 03:48:31;;;;;;;;;6.00;5.00;;;;;;;;5002295;28;9051;-83
2021/07/08 03:50:59;;;;;;;;;6.33;4.00;;;;;;;;5011334;28;9011;-83
2021/07/08 03:53:26;;;;;;;;;5.00;5.00;;;;;;;;5005004;28;8945;-83
2021/07/08 03:55:54;;;;;;;;;4.00;4.00;;;;;;;;5009125;28;8972;-81
2021/07/08 03:58:22;;;;;;;;;4.00;4.00;;;;;;;;5004073;28;8976;-82
2021/07/08 04:00:51;;;;;;;;;3.25;3.25;;;;;;;;5005124;28;8857;-85
2021/07/08 04:03:19;;;;;;;;;3.33;3.33;;;;;;;;5010444;28;8854;-88
2021/07/08 04:05:49;;;;;;;;;4.33;4.33;;;;;;;;5004201;28;9121;-88
2021/07/08 04:08:17;;;;;;;;;2.00;2.00;;;;;;;;5003996;28;9146;-87
2021/07/08 04:10:45;;;;;;;;;4.00;4.00;;;;;;;;5002168;28;8879;-86
2021/07/08 04:13:14;;;;;;;;;3.50;3.50;;;;;;;;5004834;28;8962;-86
2021/07/08 04:15:45;;;;;;;;;3.00;3.00;;;;;;;;5004840;28;9612;-90
2021/07/08 04:18:13;;;;;;;;;3.25;3.25;;;;;;;;4997568;28;8871;-88
2021/07/08 04:20:52;;;;;;;;;8.00;4.00;;;;;;;;5003476;28;8879;-88
2021/07/08 04:23:20;;;;;;;;;4.00;4.00;;;;;;;;5004121;28;8994;-87
2021/07/08 04:26:15;;;;;;;;;5.67;5.67;;;;;;;;5020336;28;9044;-88
2021/07/08 04:28:43;;;;;;;;;4.50;4.50;;;;;;;;5002776;28;9114;-89
2021/07/08 04:34:39;;;;;;;;;3.75;3.75;;;;;;;;4940963;28;8950;-87
2021/07/08 04:37:07;;;;;;;;;4.67;4.67;;;;;;;;4971051;28;8883;-83
2021/07/08 04:39:34;;;;;;;;;1.75;1.75;;;;;;;;5004723;28;8961;-83
2021/07/08 04:42:02;;;;;;;;;4.00;4.00;;;;;;;;5004811;28;8850;-87
2021/07/08 04:44:29;;;;;;;;;4.00;4.00;;;;;;;;5018134;28;8875;-87
2021/07/08 04:46:57;;;;;;;;;4.00;4.00;;;;;;;;5014128;28;8915;-87
2021/07/08 04:49:24;;;;;;;;;2.75;2.75;;;;;;;;5023671;28;8948;-87
2021/07/08 04:52:07;;;;;;;;;3.33;3.33;;;;;;;;5019055;28;8860;-87
2021/07/08 04:54:34;;;;;;;;;4.00;4.00;;;;;;;;5026814;28;8987;-88
2021/07/08 04:57:02;;;;;;;;;5.50;4.00;;;;;;;;5021742;28;8860;-88
2021/07/08 04:59:29;;;;;;;;;5.00;5.00;;;;;;;;5020916;28;8979;-89
2021/07/08 05:01:57;;;;;;;;;5.00;5.00;;;;;;;;5007277;28;8912;-89
2021/07/08 05:04:24;;;;;;;;;4.33;4.33;;;;;;;;4988678;28;9306;-84
2021/07/08 05:06:51;;;;;;;;;3.00;3.00;;;;;;;;5005826;28;9029;-87
2021/07/08 05:09:21;;;;;;;;;4.00;4.00;;;;;;;;5007956;28;8940;-88
2021/07/08 05:11:48;;;;;;;;;5.75;4.00;;;;;;;;5008848;28;9093;-87
2021/07/08 05:14:15;;;;;;;;;4.25;4.25;;;;;;;;5007876;28;8993;-85
2021/07/08 05:16:42;;;;;;;;;3.00;3.00;;;;;;;;5015278;28;9901;-84
2021/07/08 05:19:10;;;;;;;;;5.50;4.25;;;;;;;;5007457;28;8958;-81
2021/07/08 05:21:43;;;;;;;;;7.25;3.00;;;;;;;;4999403;28;8892;-86
2021/07/08 05:24:10;;;;;;;;;3.50;3.50;;;;;;;;5005570;28;8886;-84
2021/07/08 05:26:39;;;;;;;;;5.00;5.00;;;;;;;;5011203;28;8860;-85
2021/07/08 05:29:07;;;;;;;;;9.50;5.00;;;;;;;;5022552;28;8908;-76
2021/07/08 05:31:34;;;;;;;;;4.75;4.75;;;;;;;;5022533;28;8973;-79
2021/07/08 05:34:02;;;;;;;;;6.00;6.00;;;;;;;;5023161;28;8854;-80
2021/07/08 05:36:29;;;;;;;;;4.50;4.50;;;;;;;;5025170;28;8853;-75
2021/07/08 05:38:56;;;;;;;;;8.00;8.00;;;;;;;;5023319;28;9684;-77
2021/07/08 05:41:24;;;;;;;;;9.00;9.00;;;;;;;;5026132;28;8914;-75
2021/07/08 05:43:52;;;;;;;;;9.50;7.75;;;;;;;;5024421;28;8896;-78
2021/07/08 05:46:20;;;;;;;;;11.75;9.00;;;;;;;;5024216;28;8861;-77
2021/07/08 05:48:47;;;;;;;;;5.00;5.00;;;;;;;;5025261;28;9982;-80
2021/07/08 05:51:14;;;;;;;;;9.00;7.75;;;;;;;;5024911;28;8872;-78
2021/07/08 05:53:42;;;;;;;;;9.75;9.75;;;;;;;;5026311;28;8858;-78
2021/07/08 05:56:09;;;;;;;;;9.25;9.25;;;;;;;;5024307;28;9684;-79
2021/07/08 05:58:36;;;;;;;;;10.00;10.00;;;;;;;;5026446;28;8882;-80
2021/07/08 06:01:05;;;;;;;;;11.75;11.25;;;;;;;;5006901;28;8901;-77
2021/07/08 06:03:32;;;;;;;;;10.25;9.75;;;;;;;;5026341;28;9654;-76
2021/07/08 06:06:00;;;;;;;;;7.00;7.00;;;;;;;;5006272;28;8899;-80
2021/07/08 06:08:27;;;;;;;;;9.25;7.00;;;;;;;;5024471;28;8881;-77
2021/07/08 06:10:55;;;;;;;;;11.75;11.75;;;;;;;;5008592;28;8831;-78
2021/07/08 06:13:22;;;;;;;;;9.25;9.25;;;;;;;;5023488;28;9715;-79
2021/07/08 06:15:49;;;;;;;;;12.50;12.00;;;;;;;;5006201;28;8887;-78
2021/07/08 06:18:18;;;;;;;;;12.25;10.00;;;;;;;;5024770;28;9648;-76
2021/07/08 06:20:46;;;;;;;;;12.50;11.00;;;;;;;;5023793;28;8884;-76
2021/07/08 06:23:13;;;;;;;;;13.00;11.50;;;;;;;;5024480;28;8915;-81
2021/07/08 06:25:40;;;;;;;;;12.25;8.25;;;;;;;;5025506;28;8890;-75
2021/07/08 06:28:08;;;;;;;;;11.00;11.00;;;;;;;;5015057;28;8867;-75
2021/07/08 06:30:35;;;;;;;;;12.50;12.25;;;;;;;;5004135;28;8937;-78
2021/07/08 06:33:02;;;;;;;;;11.75;9.75;;;;;;;;4994285;28;9584;-80
2021/07/08 06:35:31;;;;;;;;;10.00;10.00;;;;;;;;5010142;28;9264;-77
2021/07/08 06:37:58;;;;;;;;;14.00;12.50;;;;;;;;5010628;28;8889;-80
2021/07/08 06:40:26;;;;;;;;;10.75;10.75;;;;;;;;5006398;28;9747;-79
2021/07/08 06:42:57;;;;;;;;;10.25;10.25;;;;;;;;5005780;28;8908;-80
2021/07/08 06:45:24;;;;;;;;;10.25;10.25;;;;;;;;5004595;28;8893;-80
2021/07/08 06:47:54;;;;;;;;;13.25;11.00;;;;;;;;5004700;28;8888;-83
2021/07/08 06:50:21;;;;;;;;;12.50;10.25;;;;;;;;5005134;28;8884;-77
2021/07/08 06:52:50;;;;;;;;;12.75;11.00;;;;;;;;5004196;28;8880;-78
2021/07/08 06:55:17;;;;;;;;;12.50;12.50;;;;;;;;5004969;28;8898;-76
2021/07/08 06:57:51;;;;;;;;;9.25;9.25;;;;;;;;5001942;28;8900;-78
2021/07/08 07:00:19;;;;;;;;;7.75;7.75;;;;;;;;4992306;28;8869;-77
2021/07/08 07:02:47;;;;;;;;;9.75;8.75;;;;;;;;5005505;28;8901;-76
2021/07/08 07:05:14;;;;;;;;;8.00;8.00;;;;;;;;5003777;28;8925;-78
2021/07/08 07:07:41;;;;;;;;;7.75;7.75;;;;;;;;5004688;28;9011;-82
2021/07/08 07:10:11;;;;;;;;;9.75;9.75;;;;;;;;5003830;28;8900;-78
2021/07/08 07:12:42;;;;;;;;;8.00;8.00;;;;;;;;5005511;28;8869;-83
2021/07/08 07:15:10;;;;;;;;;8.50;8.50;;;;;;;;4965530;28;9668;-80
2021/07/08 07:17:37;;;;;;;;;9.50;9.25;;;;;;;;4997834;28;8880;-77
2021/07/08 07:20:06;;;;;;;;;7.50;7.50;;;;;;;;5000487;28;8882;-77
2021/07/08 07:22:33;;;;;;;;;6.75;6.75;;;;;;;;5003969;28;8892;-79
2021/07/08 07:25:01;;;;;;;;;10.50;10.50;;;;;;;;5004460;28;8887;-79
2021/07/08 07:27:30;;;;;;;;;10.75;9.00;;;;;;;;5010048;28;8882;-79
2021/07/08 07:30:02;;;;;;;;;6.00;6.00;;;;;;;;5012549;28;8879;-79
2021/07/08 07:32:29;;;;;;;;;8.50;7.75;;;;;;;;5011714;28;8819;-80
2021/07/08 07:34:56;;;;;;;;;10.00;6.25;;;;;;;;5004686;28;8876;-79
2021/07/08 07:37:24;;;;;;;;;8.25;8.25;;;;;;;;5019609;28;8937;-82
2021/07/08 07:39:51;;;;;;;;;9.00;7.00;;;;;;;;5008095;28;8917;-80
2021/07/08 07:42:18;;;;;;;;;8.00;7.25;;;;;;;;5007898;28;8845;-80
2021/07/08 07:44:48;;;;;;;;;7.50;7.50;;;;;;;;5002017;28;8887;-80
2021/07/08 07:47:16;;;;;;;;;8.25;7.50;;;;;;;;4999265;28;8889;-79
2021/07/08 07:49:43;;;;;;;;;6.00;6.00;;;;;;;;5010813;28;8956;-78
2021/07/08 07:52:13;;;;;;;;;7.80;6.20;;;;;;;;5012401;28;9118;-80
2021/07/08 07:54:40;;;;;;;;;6.40;6.40;;;;;;;;5023697;28;8910;-78
2021/07/08 07:57:08;;;;;;;;;7.00;5.80;;;;;;;;5005019;28;8873;-79
2021/07/08 07:59:36;;;;;;;;;8.00;8.00;;;;;;;;5016262;28;9647;-80
2021/07/08 08:02:10;;;;;;;;;14.25;12.25;;;;;;;;5004401;28;8847;-80
2021/07/08 08:04:42;;;;;;;;;6.25;6.25;;;;;;;;5003031;28;8878;-80
2021/07/08 08:09:55;;;;;;;;;5.80;4.60;;;;;;;;5001867;28;8838;-82
2021/07/08 08:12:22;;;;;;;;;3.80;3.80;;;;;;;;5007731;28;8904;-82
2021/07/08 08:14:50;;;;;;;;;5.00;5.00;;;;;;;;5006362;28;8886;-82
2021/07/08 08:17:18;;;;;;;;;5.00;5.00;;;;;;;;5017924;28;9638;-82
2021/07/08 08:19:46;;;;;;;;;7.40;7.40;;;;;;;;5002446;28;8878;-82
2021/07/08 08:22:13;;;;;;;;;5.00;5.00;;;;;;;;5007183;28;8884;-83
2021/07/08 08:24:41;;;;;;;;;4.40;4.40;;;;;;;;5014865;28;8891;-78
2021/07/08 08:27:08;;;;;;;;;6.60;3.20;;;;;;;;5006192;28;8897;-81
2021/07/08 08:29:36;;;;;;;;;5.00;5.00;;;;;;;;5010892;28;8959;-83
2021/07/08 08:32:03;;;;;;;;;4.40;4.40;;;;;;;;5016567;28;8821;-81
2021/07/08 08:34:32;;;;;;;;;4.80;3.00;;;;;;;;5009530;28;9663;-79
2021/07/08 08:36:59;;;;;;;;;4.80;4.80;;;;;;;;5008973;28;8970;-82
2021/07/08 08:39:26;;;;;;;;;6.00;4.80;;;;;;;;5003919;28;8904;-79
2021/07/08 08:41:54;;;;;;;;;4.00;4.00;;;;;;;;4989925;28;8855;-80
2021/07/08 08:44:21;;;;;;;;;3.80;3.20;;;;;;;;5008155;28;8975;-82
2021/07/08 08:46:51;;;;;;;;;3.40;3.40;;;;;;;;5005552;28;9903;-82
2021/07/08 08:49:19;;;;;;;;;5.20;4.00;;;;;;;;5007972;28;8873;-80
2021/07/08 08:51:48;;;;;;;;;7.00;5.80;;;;;;;;5006553;28;8856;-78
2021/07/08 08:54:16;;;;;;;;;3.00;3.00;;;;;;;;5004317;28;8883;-79
2021/07/08 08:56:43;;;;;;;;;4.00;4.00;;;;;;;;5005262;28;8881;-77
2021/07/08 08:59:10;;;;;;;;;3.00;3.00;;;;;;;;4999493;28;8886;-80
2021/07/08 09:01:37;;;;;;;;;6.40;4.80;;;;;;;;5001667;28;9619;-81
2021/07/08 09:04:05;;;;;;;;;2.80;2.80;;;;;;;;5002971;28;8847;-81
2021/07/08 09:06:37;;;;;;;;;3.80;2.80;;;;;;;;5003941;28;8872;-79
2021/07/08 09:09:10;;;;;;;;;4.00;4.00;;;;;;;;5001802;28;9724;-78
2021/07/08 09:11:38;;;;;;;;;3.00;3.00;;;;;;;;5003072;28;8900;-79
2021/07/08 09:14:07;;;;;;;;;5.00;5.00;;;;;;;;5003634;28;8934;-80
2021/07/08 09:16:36;;;;;;;;;3.40;3.40;;;;;;;;4996460;28;8948;-75
2021/07/08 09:19:12;;;;;;;;;3.00;3.00;;;;;;;;5003109;28;8999;-77
2021/07/08 09:21:41;;;;;;;;;3.60;3.60;;;;;;;;4996810;28;8859;-76
2021/07/08 09:24:16;;;;;;;;;3.60;3.60;;;;;;;;5005844;28;8887;-78
2021/07/08 09:26:46;;;;;;;;;3.00;3.00;;;;;;;;5013374;28;8845;-85
2021/07/08 09:29:18;;;;;;;;;4.20;4.20;;;;;;;;5025518;28;8898;-76
2021/07/08 09:31:51;;;;;;;;;4.00;4.00;;;;;;;;5026689;28;8841;-78
2021/07/08 09:34:21;;;;;;;;;2.20;2.20;;;;;;;;5028193;28;8870;-77
2021/07/08 09:36:49;;;;;;;;;4.00;4.00;;;;;;;;5028432;28;8868;-79
2021/07/08 09:39:19;;;;;;;;;4.00;4.00;;;;;;;;5030035;28;8870;-78
2021/07/08 09:41:48;;;;;;;;;4.00;4.00;;;;;;;;5027872;28;8861;-78
2021/07/08 09:44:24;;;;;;;;;4.80;4.80;;;;;;;;5026543;28;8881;-78
2021/07/08 09:46:53;;;;;;;;;4.00;4.00;;;;;;;;5002582;28;8850;-77
2021/07/08 09:49:21;;;;;;;;;4.00;4.00;;;;;;;;5026964;28;8880;-76
2021/07/08 09:51:49;;;;;;;;;4.00;4.00;;;;;;;;5024840;28;8872;-77
2021/07/08 09:54:20;;;;;;;;;4.20;4.20;;;;;;;;5026069;28;8864;-77
2021/07/08 09:56:51;;;;;;;;;4.00;4.00;;;;;;;;5026334;28;8924;-77
2021/07/08 09:59:21;;;;;;;;;3.40;3.40;;;;;;;;5023492;28;8890;-79
2021/07/08 10:02:00;;;;;;;;;3.00;3.00;;;;;;;;5018740;28;8857;-78
2021/07/08 10:04:28;;;;;;;;;3.40;3.00;;;;;;;;5025251;28;8876;-80
2021/07/08 10:06:56;;;;;;;;;3.40;3.40;;;;;;;;5007767;28;8889;-77
2021/07/08 10:09:24;;;;;;;;;3.60;3.60;;;;;;;;5020861;28;8873;-76
2021/07/08 10:11:54;;;;;;;;;3.80;3.80;;;;;;;;5008227;28;8971;-80
2021/07/08 10:14:22;;;;;;;;;3.40;3.40;;;;;;;;5026435;28;8858;-78
2021/07/08 10:16:51;;;;;;;;;4.80;3.00;;;;;;;;5023719;28;8892;-77
2021/07/08 10:19:19;;;;;;;;;3.60;3.60;;;;;;;;5025945;28;8876;-77
2021/07/08 10:21:48;;;;;;;;;2.80;2.80;;;;;;;;5005541;28;8865;-78
2021/07/08 10:24:16;;;;;;;;;4.40;4.40;;;;;;;;5025657;28;9624;-77
2021/07/08 10:26:46;;;;;;;;;6.00;4.60;;;;;;;;5020686;28;8883;-80
2021/07/08 10:29:14;;;;;;;;;4.20;4.20;;;;;;;;5012135;28;8905;-78
2021/07/08 10:31:43;;;;;;;;;5.60;5.60;;;;;;;;5005100;28;8811;-79
2021/07/08 10:34:14;;;;;;;;;3.00;3.00;;;;;;;;5005406;28;8886;-80
2021/07/08 10:36:44;;;;;;;;;4.00;4.00;;;;;;;;5009697;28;8902;-91
2021/07/08 10:39:14;;;;;;;;;3.00;3.00;;;;;;;;5010170;28;8859;-83
2021/07/08 10:41:45;;;;;;;;;4.60;4.60;;;;;;;;5007483;28;8886;-86
2021/07/08 10:44:38;;;;;;;;;3.80;3.80;;;;;;;;5006046;28;8948;-85
2021/07/08 10:47:06;;;;;;;;;4.60;4.20;;;;;;;;5002355;28;8901;-80
2021/07/08 10:49:38;;;;;;;;;4.40;4.40;;;;;;;;5005469;28;8902;-81
2021/07/08 10:52:09;;;;;;;;;3.80;3.80;;;;;;;;5003106;28;9601;-78
2021/07/08 10:54:36;;;;;;;;;3.40;3.40;;;;;;;;5004902;28;8878;-89
2021/07/08 10:57:05;;;;;;;;;4.00;4.00;;;;;;;;5002432;28;8935;-79
2021/07/08 10:59:42;;;;;;;;;5.00;4.20;;;;;;;;5003651;28;8913;-80
2021/07/08 11:02:09;;;;;;;;;6.20;4.60;;;;;;;;5001754;28;9617;-77
2021/07/08 11:04:48;;;;;;;;;4.60;3.80;;;;;;;;5002479;28;8932;-81
2021/07/08 11:07:18;;;;;;;;;4.00;3.80;;;;;;;;5004711;28;9024;-84
2021/07/08 11:10:00;;;;;;;;;6.00;5.40;;;;;;;;5003855;28;8883;-80
2021/07/08 11:12:31;;;;;;;;;4.80;4.80;;;;;;;;5005408;28;8863;-84
2021/07/08 11:14:58;;;;;;;;;5.20;5.20;;;;;;;;5003996;28;9252;-81
2021/07/08 11:17:27;;;;;;;;;3.80;3.60;;;;;;;;5004933;28;8985;-79
2021/07/08 11:19:59;;;;;;;;;5.40;3.80;;;;;;;;5004520;28;8892;-78
2021/07/08 11:22:44;;;;;;;;;3.00;1.20;;;;;;;;5000008;28;9672;-78
2021/07/08 11:25:15;;;;;;;;;4.80;4.80;;;;;;;;5002306;28;8918;-80
2021/07/08 11:27:45;;;;;;;;;4.80;4.80;;;;;;;;4992124;28;9814;-83
2021/07/08 11:30:30;;;;;;;;;4.60;4.60;;;;;;;;5003072;28;8895;-82
2021/07/08 11:33:03;;;;;;;;;4.20;4.20;;;;;;;;5002635;28;8992;-82
2021/07/08 11:35:33;;;;;;;;;2.60;2.60;;;;;;;;5002439;28;8893;-79
2021/07/08 11:38:02;;;;;;;;;2.80;2.80;;;;;;;;5002174;28;8879;-80
2021/07/08 11:40:37;;;;;;;;;5.00;5.00;;;;;;;;5002374;28;8887;-80
2021/07/08 11:43:22;;;;;;;;;5.60;5.60;;;;;;;;4991804;28;8912;-80
2021/07/08 11:45:50;;;;;;;;;3.60;3.60;;;;;;;;5003365;28;8885;-81
2021/07/08 11:48:30;;;;;;;;;4.00;4.00;;;;;;;;5002101;28;8910;-80
2021/07/08 11:50:58;;;;;;;;;4.40;4.40;;;;;;;;5004668;28;9002;-81
2021/07/08 11:53:28;;;;;;;;;3.00;3.00;;;;;;;;5002880;28;8916;-81
2021/07/08 11:55:57;;;;;;;;;3.00;3.00;;;;;;;;5004019;28;8900;-80
2021/07/08 11:58:31;;;;;;;;;5.60;3.00;;;;;;;;5004779;28;9633;-81
2021/07/08 12:01:02;;;;;;;;;3.60;2.20;;;;;;;;5002275;28;8821;-80
2021/07/08 12:03:35;;;;;;;;;4.20;4.00;;;;;;;;5004809;28;8862;-83
2021/07/08 12:06:04;;;;;;;;;5.00;5.00;;;;;;;;5000589;28;9642;-81
2021/07/08 12:08:34;;;;;;;;;3.40;3.40;;;;;;;;5008908;28;9005;-79
2021/07/08 12:11:11;;;;;;;;;4.80;4.80;;;;;;;;5002716;28;8949;-83
2021/07/08 12:13:55;;;;;;;;;3.60;3.60;;;;;;;;4989400;28;8864;-87
2021/07/08 12:16:30;;;;;;;;;3.80;2.40;;;;;;;;5001350;28;8890;-87
2021/07/08 12:18:58;;;;;;;;;3.00;3.00;;;;;;;;5002004;28;8898;-80
2021/07/08 12:21:28;;;;;;;;;1.00;1.00;;;;;;;;5002482;28;8883;-83
2021/07/08 12:23:57;;;;;;;;;2.00;2.00;;;;;;;;5002753;28;8884;-82
2021/07/08 12:26:31;;;;;;;;;2.40;2.40;;;;;;;;4984438;28;8949;-79
2021/07/08 12:29:26;;;;;;;;;3.80;2.20;;;;;;;;5007196;28;8870;-79
2021/07/08 12:31:59;;;;;;;;;3.20;2.00;;;;;;;;5009547;28;8823;-77
2021/07/08 12:34:34;;;;;;;;;3.00;3.00;;;;;;;;5001035;28;8899;-88
2021/07/08 12:37:13;;;;;;;;;2.40;2.40;;;;;;;;5018323;28;8887;-87
2021/07/08 12:39:42;;;;;;;;;2.60;2.40;;;;;;;;5001854;28;8889;-82
2021/07/08 12:42:16;;;;;;;;;4.40;2.80;;;;;;;;5006941;28;8852;-80
2021/07/08 12:44:45;;;;;;;;;0.40;0.40;;;;;;;;5023551;28;8897;-83
2021/07/08 12:47:12;;;;;;;;;3.60;3.60;;;;;;;;5011615;28;8876;-78
2021/07/08 12:49:41;;;;;;;;;2.40;2.40;;;;;;;;5023158;28;8888;-83
2021/07/08 12:52:11;;;;;;;;;2.00;2.00;;;;;;;;5015562;28;8884;-79
2021/07/08 12:54:38;;;;;;;;;2.60;2.60;;;;;;;;5009301;28;8875;-80
2021/07/08 12:57:06;;;;;;;;;2.60;2.60;;;;;;;;5005209;28;8883;-82
2021/07/08 12:59:34;;;;;;;;;3.40;3.40;;;;;;;;5004655;28;8899;-79
2021/07/08 13:02:03;;;;;;;;;4.00;4.00;;;;;;;;5016216;28;8826;-84
2021/07/08 13:04:31;;;;;;;;;3.80;2.60;;;;;;;;5006365;28;8862;-80
2021/07/08 13:06:59;;;;;;;;;3.00;2.80;;;;;;;;5015961;28;8874;-80
2021/07/08 13:09:28;;;;;;;;;2.80;2.80;;;;;;;;5026081;28;8884;-82
2021/07/08 13:11:55;;;;;;;;;3.80;3.00;;;;;;;;5027193;28;8884;-83
2021/07/08 13:14:24;;;;;;;;;3.20;3.20;;;;;;;;5027974;28;8892;-85
2021/07/08 13:17:04;;;;;;;;;2.60;2.60;;;;;;;;4997804;28;8870;-81
2021/07/08 13:19:31;;;;;;;;;1.60;1.60;;;;;;;;5005034;28;8874;-82
2021/07/08 13:22:10;;;;;;;;;2.40;2.40;;;;;;;;5010325;28;8873;-85
2021/07/08 13:24:38;;;;;;;;;3.00;3.00;;;;;;;;5007330;28;8864;-86
2021/07/08 13:27:06;;;;;;;;;3.20;2.00;;;;;;;;5009252;28;8880;-83
2021/07/08 13:29:33;;;;;;;;;3.40;3.00;;;;;;;;5009080;28;8974;-82
2021/07/08 13:32:13;;;;;;;;;2.40;2.40;;;;;;;;5008596;28;8833;-85
2021/07/08 13:34:46;;;;;;;;;5.80;4.00;;;;;;;;5021318;28;8871;-79
2021/07/08 13:37:20;;;;;;;;;4.00;4.00;;;;;;;;5021229;28;8873;-83
2021/07/08 13:39:48;;;;;;;;;3.40;3.40;;;;;;;;5021623;28;8887;-83
2021/07/08 13:42:17;;;;;;;;;3.40;3.40;;;;;;;;5020067;28;9776;-83
2021/07/08 13:44:44;;;;;;;;;3.80;3.80;;;;;;;;5025320;28;8880;-82
2021/07/08 13:47:13;;;;;;;;;6.00;4.00;;;;;;;;5020434;28;8847;-82
2021/07/08 13:49:41;;;;;;;;;3.80;3.80;;;;;;;;5022006;28;8894;-77
2021/07/08 13:52:10;;;;;;;;;4.80;4.80;;;;;;;;5009951;28;8857;-81
2021/07/08 13:54:39;;;;;;;;;3.40;3.40;;;;;;;;5009728;28;8868;-83
2021/07/08 13:57:08;;;;;;;;;2.20;2.20;;;;;;;;5009129;28;8917;-84
2021/07/08 13:59:36;;;;;;;;;5.20;3.80;;;;;;;;5014714;28;8916;-85
2021/07/08 14:02:05;;;;;;;;;3.60;3.60;;;;;;;;5005802;28;8823;-82
2021/07/08 14:04:34;;;;;;;;;3.80;3.80;;;;;;;;5024944;28;8896;-82
2021/07/08 14:07:01;;;;;;;;;5.80;3.80;;;;;;;;5027043;28;8908;-84
2021/07/08 14:09:28;;;;;;;;;3.60;3.60;;;;;;;;5027093;28;8880;-85
2021/07/08 14:11:58;;;;;;;;;5.60;4.80;;;;;;;;5026221;28;8868;-78
2021/07/08 14:14:27;;;;;;;;;3.80;3.80;;;;;;;;5021295;28;8872;-85
2021/07/08 14:16:55;;;;;;;;;3.20;3.20;;;;;;;;4999044;28;8890;-81
2021/07/08 14:19:22;;;;;;;;;3.80;3.80;;;;;;;;5026884;28;8886;-82
2021/07/08 14:21:52;;;;;;;;;6.00;4.00;;;;;;;;5019605;28;8912;-85
2021/07/08 14:24:19;;;;;;;;;3.60;3.60;;;;;;;;5006527;28;8884;-80
2021/07/08 14:26:46;;;;;;;;;4.80;4.80;;;;;;;;5009601;28;8869;-77
2021/07/08 14:29:14;;;;;;;;;3.80;3.80;;;;;;;;5014516;28;9754;-84
2021/07/08 14:31:41;;;;;;;;;3.80;3.80;;;;;;;;5010325;28;8793;-80
2021/07/08 14:34:09;;;;;;;;;5.20;5.00;;;;;;;;5021668;28;8895;-84
2021/07/08 14:36:36;;;;;;;;;4.60;4.60;;;;;;;;5026633;28;8864;-77
2021/07/08 14:39:06;;;;;;;;;4.00;4.00;;;;;;;;5025546;28;8876;-80
2021/07/08 14:41:41;;;;;;;;;5.20;5.20;;;;;;;;5013819;28;8871;-81
2021/07/08 14:44:17;;;;;;;;;3.00;3.00;;;;;;;;5019527;28;8983;-81
2021/07/08 14:46:44;;;;;;;;;4.60;4.60;;;;;;;;5001272;28;8962;-77
2021/07/08 14:49:11;;;;;;;;;4.40;4.40;;;;;;;;5021481;28;8895;-79
2021/07/08 14:51:39;;;;;;;;;3.00;2.60;;;;;;;;5014935;28;9693;-79
2021/07/08 14:54:08;;;;;;;;;4.80;4.80;;;;;;;;5017668;28;8872;-84
2021/07/08 14:56:36;;;;;;;;;3.20;3.20;;;;;;;;5007758;28;8884;-83
2021/07/08 14:59:03;;;;;;;;;5.00;5.00;;;;;;;;5017642;28;8937;-80
2021/07/08 15:01:32;;;;;;;;;5.00;5.00;;;;;;;;5008326;28;8821;-77
2021/07/08 15:04:00;;;;;;;;;4.40;4.00;;;;;;;;5013350;28;8867;-80
2021/07/08 15:06:27;;;;;;;;;3.20;3.20;;;;;;;;5001741;28;8952;-79
2021/07/08 15:08:55;;;;;;;;;3.60;3.60;;;;;;;;5011327;28;8924;-77
2021/07/08 15:11:24;;;;;;;;;4.00;4.00;;;;;;;;5001222;28;8872;-80
2021/07/08 15:13:51;;;;;;;;;4.60;4.60;;;;;;;;5007071;28;8887;-79